createdAt,value
2023-04-18T00:00:39.130Z,8.50
2023-04-18T00:03:06.498Z,9.23
2023-04-18T00:05:33.672Z,9.30
2023-04-18T00:08:00.646Z,8.40
2023-04-18T00:10:27.704Z,9.57
2023-04-18T00:12:54.709Z,9.50
2023-04-18T00:15:21.661Z,9.13
2023-04-18T00:17:48.852Z,8.50
2023-04-18T00:20:16.185Z,8.97
2023-04-18T00:22:43.925Z,9.00
2023-04-18T00:25:11.223Z,8.67
2023-04-18T00:27:41.910Z,8.70
2023-04-18T00:30:09.668Z,8.83
2023-04-18T00:32:38.202Z,8.93
2023-04-18T00:35:06.135Z,9.37
2023-04-18T00:37:33.245Z,9.17
2023-04-18T00:40:00.127Z,8.87
2023-04-18T00:42:28.874Z,8.33
2023-04-18T00:44:55.991Z,8.20
2023-04-18T00:47:23.265Z,8.40
2023-04-18T00:49:50.630Z,8.80
2023-04-18T00:52:18.746Z,8.20
2023-04-18T00:54:47.271Z,7.90
2023-04-18T00:57:15.087Z,8.40
2023-04-18T00:59:42.956Z,8.60
2023-04-18T01:02:09.911Z,8.40
2023-04-18T01:04:37.308Z,8.60
2023-04-18T01:07:05.143Z,8.40
2023-04-18T01:09:32.174Z,8.67
2023-04-18T01:11:59.431Z,8.90
2023-04-18T01:14:26.396Z,9.37
2023-04-18T01:16:53.528Z,9.73
2023-04-18T01:19:20.803Z,8.73
2023-04-18T01:21:47.994Z,8.87
2023-04-18T01:24:17.678Z,9.17
2023-04-18T01:26:49.387Z,8.53
2023-04-18T01:29:16.582Z,8.70
2023-04-18T01:31:43.537Z,9.03
2023-04-18T01:34:10.956Z,8.83
2023-04-18T01:36:39.107Z,9.70
2023-04-18T01:39:07.161Z,8.60
2023-04-18T01:41:34.100Z,8.60
2023-04-18T01:44:01.709Z,9.23
2023-04-18T01:46:29.354Z,9.87
2023-04-18T01:48:57.523Z,9.10
2023-04-18T01:51:24.598Z,9.43
2023-04-18T01:53:53.799Z,8.27
2023-04-18T01:56:21.794Z,9.10
2023-04-18T01:58:48.881Z,8.07
2023-04-18T02:01:16.617Z,8.57
2023-04-18T02:03:43.854Z,9.27
2023-04-18T02:06:13.292Z,8.57
2023-04-18T02:08:40.709Z,8.70
2023-04-18T02:11:07.828Z,8.17
2023-04-18T02:13:35.222Z,9.60
2023-04-18T02:16:12.667Z,9.67
2023-04-18T02:18:40.158Z,9.10
2023-04-18T02:21:07.336Z,8.07
2023-04-18T02:23:34.347Z,8.03
2023-04-18T02:26:01.235Z,8.97
2023-04-18T02:28:28.183Z,8.77
2023-04-18T02:30:55.160Z,9.10
2023-04-18T02:33:22.161Z,8.53
2023-04-18T02:35:49.092Z,8.87
2023-04-18T02:38:17.467Z,9.00
2023-04-18T02:40:44.311Z,8.80
2023-04-18T02:43:11.266Z,8.90
2023-04-18T02:45:38.586Z,8.73
2023-04-18T02:48:05.819Z,8.93
2023-04-18T02:50:35.472Z,9.43
2023-04-18T02:53:02.798Z,9.70
2023-04-18T02:55:41.653Z,8.40
2023-04-18T02:58:09.293Z,9.37
2023-04-18T03:00:56.462Z,8.90
2023-04-18T03:04:00.176Z,8.53
2023-04-18T03:07:02.063Z,8.47
2023-04-18T03:09:33.279Z,8.63
2023-04-18T03:12:05.810Z,8.97
2023-04-18T03:14:34.906Z,8.70
2023-04-18T03:17:02.488Z,8.87
2023-04-18T03:19:35.636Z,9.03
2023-04-18T03:22:06.691Z,9.17
2023-04-18T03:24:36.443Z,9.60
2023-04-18T03:27:06.102Z,9.50
2023-04-18T03:29:33.608Z,9.10
2023-04-18T03:32:01.283Z,9.40
2023-04-18T03:34:29.395Z,8.47
2023-04-18T03:36:56.758Z,8.97
2023-04-18T03:39:24.815Z,7.93
2023-04-18T03:41:53.024Z,9.47
2023-04-18T03:44:20.304Z,9.27
2023-04-18T03:46:47.360Z,9.93
2023-04-18T03:49:14.466Z,10.03
2023-04-18T03:51:50.046Z,8.87
2023-04-18T03:54:18.472Z,8.40
2023-04-18T03:56:46.005Z,9.33
2023-04-18T03:59:13.951Z,7.97
2023-04-18T04:01:43.952Z,8.70
2023-04-18T04:04:13.100Z,8.50
2023-04-18T04:06:40.527Z,8.77
2023-04-18T04:09:07.799Z,8.87
2023-04-18T04:11:34.776Z,9.00
2023-04-18T04:14:02.193Z,9.63
2023-04-18T04:16:35.492Z,9.33
2023-04-18T04:19:04.594Z,8.80
2023-04-18T04:21:38.104Z,8.97
2023-04-18T04:24:08.007Z,9.70
2023-04-18T04:26:39.570Z,9.23
2023-04-18T04:29:13.805Z,9.93
2023-04-18T04:31:42.679Z,9.57
2023-04-18T04:34:09.755Z,9.67
2023-04-18T04:36:37.532Z,9.53
2023-04-18T04:39:06.660Z,9.00
2023-04-18T04:41:47.180Z,9.17
2023-04-18T04:44:17.794Z,9.17
2023-04-18T04:46:44.948Z,9.47
2023-04-18T04:49:19.131Z,8.83
2023-04-18T04:51:46.261Z,9.30
2023-04-18T04:54:13.627Z,8.30
2023-04-18T04:56:41.097Z,9.20
2023-04-18T04:59:08.080Z,9.43
2023-04-18T05:01:42.891Z,7.93
2023-04-18T05:04:10.060Z,8.90
2023-04-18T05:06:40.044Z,8.53
2023-04-18T05:09:07.437Z,8.87
2023-04-18T05:11:34.505Z,8.60
2023-04-18T05:14:01.519Z,8.50
2023-04-18T05:16:28.502Z,8.27
2023-04-18T05:18:56.599Z,8.43
2023-04-18T05:21:26.038Z,8.73
2023-04-18T05:23:53.155Z,7.97
2023-04-18T05:26:20.854Z,8.43
2023-04-18T05:28:48.162Z,8.87
2023-04-18T05:31:15.131Z,8.80
2023-04-18T05:33:42.416Z,8.57
2023-04-18T05:36:12.209Z,8.17
2023-04-18T05:38:39.180Z,8.57
2023-04-18T05:41:06.156Z,8.47
2023-04-18T05:43:33.257Z,8.30
2023-04-18T05:46:00.401Z,8.50
2023-04-18T05:48:28.197Z,8.40
2023-04-18T05:50:55.200Z,9.00
2023-04-18T05:53:22.233Z,9.10
2023-04-18T05:55:50.158Z,9.07
2023-04-18T05:58:17.257Z,8.73
2023-04-18T06:00:44.393Z,9.60
2023-04-18T06:03:11.783Z,8.83
2023-04-18T06:05:40.970Z,8.97
2023-04-18T06:08:08.240Z,10.17
2023-04-18T06:10:38.499Z,9.37
2023-04-18T06:13:06.176Z,8.43
2023-04-18T06:15:34.297Z,8.63
2023-04-18T06:18:01.289Z,10.13
2023-04-18T06:20:28.263Z,9.50
2023-04-18T06:22:55.258Z,8.17
2023-04-18T06:25:22.237Z,8.37
2023-04-18T06:27:49.303Z,8.33
2023-04-18T06:30:16.335Z,8.77
2023-04-18T06:32:43.565Z,8.67
2023-04-18T06:35:11.011Z,8.60
2023-04-18T06:37:38.188Z,9.07
2023-04-18T06:40:05.951Z,8.80
2023-04-18T06:42:32.996Z,8.80
2023-04-18T06:44:59.973Z,8.20
2023-04-18T06:47:27.117Z,9.03
2023-04-18T06:49:54.489Z,8.70
2023-04-18T06:52:21.403Z,8.17
2023-04-18T06:54:48.353Z,8.60
2023-04-18T06:57:15.882Z,8.40
2023-04-18T06:59:42.803Z,7.93
2023-04-18T07:02:09.838Z,7.50
2023-04-18T07:04:36.859Z,7.90
2023-04-18T07:07:05.205Z,8.63
2023-04-18T07:09:32.670Z,8.33
2023-04-18T07:11:59.646Z,8.60
2023-04-18T07:14:27.512Z,7.93
2023-04-18T07:16:58.956Z,7.73
2023-04-18T07:19:26.368Z,6.43
2023-04-18T07:21:54.879Z,7.17
2023-04-18T07:24:23.621Z,8.07
2023-04-18T07:26:53.784Z,7.30
2023-04-18T07:29:22.013Z,7.47
2023-04-18T07:31:49.390Z,7.83
2023-04-18T07:34:16.485Z,7.20
2023-04-18T07:36:43.637Z,7.57
2023-04-18T07:39:11.230Z,6.80
2023-04-18T07:41:38.143Z,6.17
2023-04-18T07:44:05.462Z,7.07
2023-04-18T07:46:33.941Z,6.90
2023-04-18T07:49:02.374Z,7.13
2023-04-18T07:51:32.375Z,6.37
2023-04-18T07:53:59.691Z,6.80
2023-04-18T07:56:28.344Z,6.43
2023-04-18T07:58:55.665Z,7.13
2023-04-18T08:01:24.682Z,6.80
2023-04-18T08:03:53.612Z,7.30
2023-04-18T08:06:21.453Z,6.80
2023-04-18T08:08:48.529Z,6.40
2023-04-18T08:11:15.426Z,6.97
2023-04-18T08:13:42.448Z,6.83
2023-04-18T08:16:09.542Z,6.40
2023-04-18T08:18:36.662Z,6.73
2023-04-18T08:21:03.998Z,7.20
2023-04-18T08:23:30.963Z,7.63
2023-04-18T08:25:58.091Z,7.33
2023-04-18T08:28:25.238Z,7.23
2023-04-18T08:30:52.187Z,7.80
2023-04-18T08:33:19.168Z,7.53
2023-04-18T08:35:46.162Z,7.43
2023-04-18T08:38:13.437Z,7.63
2023-04-18T08:40:40.434Z,7.43
2023-04-18T08:43:09.411Z,7.63
2023-04-18T08:45:36.990Z,8.10
2023-04-18T08:48:04.357Z,6.80
2023-04-18T08:50:31.978Z,7.70
2023-04-18T08:53:03.693Z,8.57
2023-04-18T08:55:30.780Z,8.10
2023-04-18T08:57:57.738Z,6.83
2023-04-18T09:00:24.819Z,7.00
2023-04-18T09:02:56.816Z,6.80
2023-04-18T09:05:27.856Z,6.53
2023-04-18T09:07:56.881Z,7.50
2023-04-18T09:10:35.035Z,6.80
2023-04-18T09:13:04.288Z,6.87
2023-04-18T09:15:31.915Z,6.50
2023-04-18T09:18:03.271Z,6.00
2023-04-18T09:20:44.489Z,6.43
2023-04-18T09:23:23.417Z,7.23
2023-04-18T09:25:52.448Z,6.67
2023-04-18T09:28:33.435Z,7.25
2023-04-18T09:31:12.895Z,7.63
2023-04-18T09:33:52.721Z,7.00
2023-04-18T09:36:29.209Z,6.80
2023-04-18T09:38:57.160Z,6.28
2023-04-18T09:41:24.806Z,6.83
2023-04-18T09:44:15.735Z,6.25
2023-04-18T09:46:46.610Z,7.20
2023-04-18T09:49:14.874Z,6.57
2023-04-18T09:51:44.372Z,5.90
2023-04-18T09:54:15.874Z,6.13
2023-04-18T09:56:45.921Z,5.85
2023-04-18T09:59:18.678Z,6.50
2023-04-18T10:01:50.874Z,6.20
2023-04-18T10:04:19.421Z,6.40
2023-04-18T10:06:46.867Z,6.10
2023-04-18T10:09:16.052Z,5.80
2023-04-18T10:11:44.432Z,5.72
2023-04-18T10:14:15.540Z,5.90
2023-04-18T10:16:45.494Z,5.40
2023-04-18T10:19:27.237Z,4.82
2023-04-18T10:22:01.831Z,3.70
2023-04-18T10:24:50.163Z,3.30
2023-04-18T10:27:18.918Z,3.20
2023-04-18T10:29:53.942Z,3.80
2023-04-18T10:32:23.789Z,4.10
2023-04-18T10:34:53.471Z,4.17
2023-04-18T10:37:21.309Z,4.90
2023-04-18T10:39:58.362Z,5.80
2023-04-18T10:42:47.042Z,6.10
2023-04-18T10:45:25.746Z,5.83
2023-04-18T10:48:32.732Z,5.23
2023-04-18T10:51:21.024Z,4.03
2023-04-18T10:53:57.803Z,4.70
2023-04-18T10:56:26.126Z,4.65
2023-04-18T10:58:53.853Z,4.65
2023-04-18T11:01:31.030Z,4.95
2023-04-18T11:04:00.340Z,4.72
2023-04-18T11:06:27.685Z,4.53
2023-04-18T11:09:12.098Z,5.20
2023-04-18T11:11:39.482Z,4.70
2023-04-18T11:14:07.742Z,5.10
2023-04-18T11:16:36.496Z,4.68
2023-04-18T11:19:25.715Z,5.30
2023-04-18T11:21:52.803Z,5.95
2023-04-18T11:24:25.497Z,5.03
2023-04-18T11:26:55.943Z,6.50
2023-04-18T11:29:23.290Z,6.53
2023-04-18T11:31:53.329Z,6.90
2023-04-18T11:34:22.234Z,7.45
2023-04-18T11:36:52.943Z,6.47
2023-04-18T11:39:20.365Z,7.07
2023-04-18T11:41:50.718Z,7.05
2023-04-18T11:44:27.954Z,6.82
2023-04-18T11:46:55.130Z,7.25
2023-04-18T11:49:31.294Z,7.18
2023-04-18T11:52:01.053Z,9.20
2023-04-18T11:54:40.120Z,9.98
2023-04-18T11:57:26.585Z,9.13
2023-04-18T11:59:59.898Z,9.57
2023-04-18T12:02:45.938Z,8.25
2023-04-18T12:05:25.685Z,7.10
2023-04-18T12:07:53.246Z,7.05
2023-04-18T12:10:20.080Z,7.22
2023-04-18T12:12:56.056Z,6.28
2023-04-18T12:15:28.253Z,6.70
2023-04-18T12:18:05.031Z,7.22
2023-04-18T12:20:50.679Z,6.47
2023-04-18T12:23:35.516Z,6.47
2023-04-18T12:26:08.735Z,6.95
2023-04-18T12:28:35.830Z,7.00
2023-04-18T12:31:05.947Z,7.38
2023-04-18T12:33:34.343Z,7.22
2023-04-18T12:36:01.445Z,7.88
2023-04-18T12:38:28.462Z,7.50
2023-04-18T12:40:55.498Z,7.95
2023-04-18T12:43:22.523Z,7.60
2023-04-18T12:45:50.430Z,7.90
2023-04-18T12:48:17.388Z,8.73
2023-04-18T12:50:44.395Z,8.45
2023-04-18T12:53:11.406Z,7.75
2023-04-18T12:55:38.436Z,7.63
2023-04-18T12:58:05.450Z,7.22
2023-04-18T13:00:33.171Z,7.50
2023-04-18T13:03:00.914Z,8.10
2023-04-18T13:05:33.068Z,7.50
2023-04-18T13:10:32.269Z,9.23
2023-04-18T13:12:59.171Z,9.60
2023-04-18T13:15:27.562Z,9.90
2023-04-18T13:17:58.479Z,9.18
2023-04-18T13:20:25.684Z,8.35
2023-04-18T13:22:52.607Z,8.30
2023-04-18T13:25:19.639Z,8.63
2023-04-18T13:27:46.993Z,9.13
2023-04-18T13:30:14.100Z,8.30
2023-04-18T13:32:42.663Z,8.15
2023-04-18T13:35:13.597Z,7.82
2023-04-18T13:37:40.815Z,8.13
2023-04-18T13:40:08.602Z,9.45
2023-04-18T13:42:39.395Z,9.43
2023-04-18T13:45:07.883Z,9.88
2023-04-18T13:47:35.815Z,10.45
2023-04-18T13:50:03.029Z,8.65
2023-04-18T13:52:29.903Z,9.77
2023-04-18T13:54:56.971Z,10.40
2023-04-18T13:57:23.930Z,9.80
2023-04-18T13:59:50.922Z,9.40
2023-04-18T14:02:18.153Z,8.88
2023-04-18T14:04:45.227Z,8.57
2023-04-18T14:07:12.416Z,9.20
2023-04-18T14:09:39.752Z,10.10
2023-04-18T14:12:07.160Z,9.32
2023-04-18T14:14:34.153Z,8.10
2023-04-18T14:17:01.231Z,8.95
2023-04-18T14:19:28.447Z,9.63
2023-04-18T14:21:55.433Z,10.07
2023-04-18T14:24:22.608Z,12.25
2023-04-18T14:26:49.519Z,11.77
2023-04-18T14:29:16.975Z,11.05
2023-04-18T14:31:44.110Z,11.13
2023-04-18T14:34:11.114Z,10.38
2023-04-18T14:36:38.125Z,11.07
2023-04-18T14:39:05.539Z,11.52
2023-04-18T14:41:33.026Z,11.88
2023-04-18T14:44:00.154Z,10.85
2023-04-18T14:46:28.278Z,11.68
2023-04-18T14:48:55.367Z,11.07
2023-04-18T14:51:23.425Z,9.65
2023-04-18T14:53:50.391Z,12.18
2023-04-18T14:56:20.993Z,10.55
2023-04-18T14:58:48.400Z,11.20
2023-04-18T15:01:17.509Z,10.98
2023-04-18T15:03:45.447Z,12.10
2023-04-18T15:06:14.786Z,11.75
2023-04-18T15:08:44.090Z,11.10
2023-04-18T15:11:11.280Z,11.55
2023-04-18T15:13:38.240Z,11.75
2023-04-18T15:16:06.491Z,11.57
2023-04-18T15:18:33.404Z,10.10
2023-04-18T15:21:00.572Z,11.23
2023-04-18T15:23:28.263Z,10.82
2023-04-18T15:25:55.291Z,11.00
2023-04-18T15:28:22.723Z,9.55
2023-04-18T15:30:50.121Z,9.82
2023-04-18T15:33:19.077Z,10.82
2023-04-18T15:35:47.633Z,9.45
2023-04-18T15:38:14.908Z,9.48
2023-04-18T15:40:43.384Z,10.75
2023-04-18T15:43:10.444Z,10.25
2023-04-18T15:45:37.550Z,9.75
2023-04-18T15:48:04.952Z,8.95
2023-04-18T15:50:33.562Z,9.73
2023-04-18T15:53:02.563Z,9.05
2023-04-18T15:55:30.004Z,9.38
2023-04-18T15:57:59.990Z,9.80
2023-04-18T16:00:27.107Z,10.27
2023-04-18T16:02:54.069Z,9.65
2023-04-18T16:05:21.418Z,9.70
2023-04-18T16:07:48.331Z,9.65
2023-04-18T16:10:15.477Z,10.55
2023-04-18T16:12:42.520Z,11.45
2023-04-18T16:15:11.199Z,10.65
2023-04-18T16:17:38.432Z,10.73
2023-04-18T16:20:09.064Z,9.80
2023-04-18T16:22:37.464Z,9.35
2023-04-18T16:25:06.811Z,10.75
2023-04-18T16:27:33.986Z,10.27
2023-04-18T16:30:01.230Z,10.20
2023-04-18T16:32:28.280Z,10.57
2023-04-18T16:34:55.332Z,10.18
2023-04-18T16:37:22.279Z,10.25
2023-04-18T16:39:49.188Z,10.07
2023-04-18T16:42:16.581Z,10.13
2023-04-18T16:44:45.345Z,9.68
2023-04-18T16:47:12.797Z,10.15
2023-04-18T16:49:41.121Z,10.18
2023-04-18T16:52:08.463Z,8.90
2023-04-18T16:54:35.818Z,9.20
2023-04-18T16:57:03.394Z,8.77
2023-04-18T16:59:30.588Z,9.05
2023-04-18T17:01:57.811Z,9.35
2023-04-18T17:04:26.912Z,9.95
2023-04-18T17:06:54.123Z,9.43
2023-04-18T17:09:21.293Z,10.23
2023-04-18T17:11:48.670Z,10.15
2023-04-18T17:14:17.462Z,9.55
2023-04-18T17:16:44.587Z,8.55
2023-04-18T17:19:11.810Z,9.50
2023-04-18T17:21:39.293Z,9.48
2023-04-18T17:24:07.082Z,8.73
2023-04-18T17:26:37.033Z,9.38
2023-04-18T17:29:04.635Z,9.27
2023-04-18T17:31:32.591Z,9.20
2023-04-18T17:34:00.798Z,10.07
2023-04-18T17:36:27.846Z,10.48
2023-04-18T17:38:55.122Z,9.98
2023-04-18T17:41:22.424Z,11.85
2023-04-18T17:43:53.605Z,10.70
2023-04-18T17:46:20.719Z,10.27
2023-04-18T17:48:47.638Z,9.77
2023-04-18T17:51:16.377Z,9.35
2023-04-18T17:53:43.377Z,10.52
2023-04-18T17:56:10.398Z,9.95
2023-04-18T17:58:37.380Z,10.50
2023-04-18T18:01:13.364Z,9.70
2023-04-18T18:03:40.773Z,9.07
2023-04-18T18:06:11.239Z,9.52
2023-04-18T18:08:39.003Z,9.77
2023-04-18T18:11:06.231Z,10.43
2023-04-18T18:13:33.260Z,9.13
2023-04-18T18:16:01.911Z,9.40
2023-04-18T18:18:30.096Z,9.45
2023-04-18T18:20:58.119Z,10.07
2023-04-18T18:23:25.621Z,9.63
2023-04-18T18:25:52.606Z,10.80
2023-04-18T18:28:19.590Z,10.20
2023-04-18T18:30:46.501Z,9.63
2023-04-18T18:33:13.835Z,9.50
2023-04-18T18:35:40.745Z,9.83
2023-04-18T18:38:07.765Z,9.33
2023-04-18T18:40:34.690Z,9.03
2023-04-18T18:43:02.684Z,10.30
2023-04-18T18:45:29.751Z,9.33
2023-04-18T18:47:56.957Z,10.07
2023-04-18T18:50:23.979Z,9.27
2023-04-18T18:52:50.943Z,9.37
2023-04-18T18:55:18.597Z,9.47
2023-04-18T18:57:45.598Z,11.00
2023-04-18T19:00:13.388Z,9.93
2023-04-18T19:02:40.396Z,9.47
2023-04-18T19:05:08.743Z,9.67
2023-04-18T19:07:35.671Z,10.47
2023-04-18T19:10:03.432Z,9.37
2023-04-18T19:12:30.336Z,10.20
2023-04-18T19:14:57.323Z,10.43
2023-04-18T19:17:24.823Z,11.13
2023-04-18T19:19:53.516Z,10.50
2023-04-18T19:22:20.543Z,9.53
2023-04-18T19:24:47.577Z,9.53
2023-04-18T19:27:14.574Z,9.73
2023-04-18T19:29:41.585Z,9.87
2023-04-18T19:32:08.680Z,9.90
2023-04-18T19:34:36.112Z,10.10
2023-04-18T19:37:03.790Z,9.03
2023-04-18T19:39:31.046Z,10.27
2023-04-18T19:41:57.953Z,9.50
2023-04-18T19:44:25.142Z,10.73
2023-04-18T19:46:52.017Z,9.50
2023-04-18T19:49:19.190Z,8.80
2023-04-18T19:51:46.102Z,9.87
2023-04-18T19:54:13.358Z,9.67
2023-04-18T19:56:40.408Z,9.27
2023-04-18T19:59:08.555Z,9.50
2023-04-18T20:01:35.941Z,9.77
2023-04-18T20:04:03.272Z,9.43
2023-04-18T20:06:31.108Z,8.63
2023-04-18T20:08:58.168Z,9.67
2023-04-18T20:11:25.239Z,9.53
2023-04-18T20:13:55.398Z,8.87
2023-04-18T20:16:23.647Z,9.37
2023-04-18T20:18:54.206Z,9.80
2023-04-18T20:21:21.943Z,9.13
2023-04-18T20:23:50.513Z,9.90
2023-04-18T20:26:17.811Z,8.90
2023-04-18T20:28:44.746Z,8.33
2023-04-18T20:31:12.735Z,8.43
2023-04-18T20:33:39.831Z,8.53
2023-04-18T20:36:07.512Z,8.83
2023-04-18T20:38:34.613Z,8.60
2023-04-18T20:41:02.088Z,9.30
2023-04-18T20:43:29.269Z,8.60
2023-04-18T20:45:57.925Z,8.53
2023-04-18T20:48:25.075Z,9.00
2023-04-18T20:50:52.113Z,8.87
2023-04-18T20:53:21.123Z,8.87
2023-04-18T20:55:48.884Z,9.30
2023-04-18T20:58:16.107Z,9.50
2023-04-18T21:00:44.542Z,9.33
2023-04-18T21:03:15.708Z,9.37
2023-04-18T21:05:44.563Z,9.87
2023-04-18T21:08:11.576Z,9.00
2023-04-18T21:10:39.918Z,9.00
2023-04-18T21:13:07.142Z,8.70
2023-04-18T21:15:35.847Z,9.60
2023-04-18T21:18:03.012Z,8.77
2023-04-18T21:20:30.925Z,9.20
2023-04-18T21:22:57.864Z,9.13
2023-04-18T21:25:24.842Z,8.83
2023-04-18T21:27:54.707Z,9.00
2023-04-18T21:30:35.923Z,9.07
2023-04-18T21:33:03.416Z,8.60
2023-04-18T21:35:30.470Z,8.57
2023-04-18T21:37:58.383Z,9.57
2023-04-18T21:40:26.740Z,9.20
2023-04-18T21:42:53.700Z,9.40
2023-04-18T21:45:20.902Z,9.50
2023-04-18T21:47:48.655Z,9.90
2023-04-18T21:50:16.091Z,9.97
2023-04-18T21:52:43.247Z,9.10
2023-04-18T21:55:10.955Z,8.33
2023-04-18T21:57:37.863Z,8.97
2023-04-18T22:00:08.401Z,9.30
2023-04-18T22:02:37.119Z,8.60
2023-04-18T22:05:04.529Z,8.97
2023-04-18T22:07:32.313Z,8.80
2023-04-18T22:10:00.376Z,9.30
2023-04-18T22:12:27.526Z,8.30
2023-04-18T22:14:54.740Z,8.73
2023-04-18T22:17:21.894Z,8.30
2023-04-18T22:19:50.433Z,8.23
2023-04-18T22:22:17.428Z,7.47
2023-04-18T22:24:46.797Z,7.80
2023-04-18T22:27:14.597Z,7.93
2023-04-18T22:29:41.475Z,9.27
2023-04-18T22:32:08.529Z,8.63
2023-04-18T22:34:35.608Z,9.00
2023-04-18T22:37:02.498Z,8.10
2023-04-18T22:39:31.123Z,8.53
2023-04-18T22:41:58.029Z,9.47
2023-04-18T22:44:25.350Z,10.60
2023-04-18T22:46:54.576Z,8.57
2023-04-18T22:49:22.197Z,8.60
2023-04-18T22:51:49.695Z,9.10
2023-04-18T22:54:16.715Z,9.37
2023-04-18T22:56:43.777Z,9.50
2023-04-18T22:59:10.668Z,9.87
2023-04-18T23:01:37.735Z,9.43
2023-04-18T23:04:05.081Z,9.27
2023-04-18T23:06:32.499Z,9.07
2023-04-18T23:08:59.465Z,9.30
2023-04-18T23:11:26.827Z,9.77
2023-04-18T23:13:53.739Z,9.63
2023-04-18T23:16:21.020Z,8.87
2023-04-18T23:18:48.328Z,9.40
2023-04-18T23:21:15.602Z,10.47
2023-04-18T23:23:42.607Z,10.50
2023-04-18T23:26:17.104Z,10.33
2023-04-18T23:28:44.102Z,9.47
2023-04-18T23:31:11.197Z,9.97
2023-04-18T23:33:38.207Z,9.63
2023-04-18T23:36:06.519Z,10.67
2023-04-18T23:38:34.127Z,10.07
2023-04-18T23:41:01.079Z,9.90
2023-04-18T23:43:27.985Z,10.10
2023-04-18T23:45:54.918Z,9.33
2023-04-18T23:48:22.072Z,10.40
2023-04-18T23:50:52.109Z,9.50
2023-04-18T23:53:21.533Z,9.43
2023-04-18T23:55:51.085Z,8.97
2023-04-18T23:58:18.221Z,10.60
